createdAt,value
2023-05-19T00:01:08.330Z,5.69
2023-05-19T00:03:40.403Z,5.90
2023-05-19T00:06:09.957Z,5.77
2023-05-19T00:08:39.644Z,5.90
2023-05-19T00:11:10.331Z,5.83
2023-05-19T00:13:39.845Z,5.66
2023-05-19T00:16:09.443Z,5.60
2023-05-19T00:18:37.538Z,5.56
2023-05-19T00:21:05.790Z,5.50
2023-05-19T00:23:34.026Z,5.63
2023-05-19T00:26:02.010Z,5.57
2023-05-19T00:28:31.340Z,5.40
2023-05-19T00:31:01.684Z,5.45
2023-05-19T00:33:29.627Z,5.69
2023-05-19T00:35:57.731Z,5.88
2023-05-19T00:38:25.867Z,5.86
2023-05-19T00:40:54.300Z,5.76
2023-05-19T00:43:22.325Z,5.90
2023-05-19T00:45:54.137Z,5.84
2023-05-19T00:48:22.526Z,5.78
2023-05-19T00:50:51.402Z,5.60
2023-05-19T00:53:20.010Z,5.79
2023-05-19T00:55:49.234Z,5.63
2023-05-19T00:58:19.586Z,6.16
2023-05-19T01:00:50.757Z,6.07
2023-05-19T01:03:20.618Z,5.88
2023-05-19T01:05:51.146Z,5.94
2023-05-19T01:08:19.325Z,5.91
2023-05-19T01:10:47.437Z,5.89
2023-05-19T01:13:15.706Z,5.78
2023-05-19T01:16:02.612Z,5.84
2023-05-19T01:18:46.352Z,5.66
2023-05-19T01:21:44.507Z,5.55
2023-05-19T01:24:33.339Z,5.66
2023-05-19T01:27:32.570Z,5.86
2023-05-19T01:30:31.499Z,5.61
2023-05-19T01:33:02.637Z,5.67
2023-05-19T01:35:32.982Z,5.93
2023-05-19T01:38:02.716Z,5.87
2023-05-19T01:40:32.054Z,5.37
2023-05-19T01:43:01.904Z,5.60
2023-05-19T01:45:33.170Z,5.66
2023-05-19T01:48:03.533Z,5.33
2023-05-19T01:50:32.927Z,5.46
2023-05-19T01:53:01.961Z,5.72
2023-05-19T01:55:30.467Z,5.60
2023-05-19T01:58:08.234Z,5.42
2023-05-19T02:00:53.212Z,5.37
2023-05-19T02:03:34.132Z,5.36
2023-05-19T02:06:12.244Z,5.58
2023-05-19T02:08:45.346Z,5.83
2023-05-19T02:11:18.374Z,5.67
2023-05-19T02:13:51.439Z,5.60
2023-05-19T02:16:23.197Z,5.55
2023-05-19T02:18:54.485Z,5.50
2023-05-19T02:21:22.719Z,5.55
2023-05-19T02:23:51.909Z,5.70
2023-05-19T02:26:19.932Z,5.75
2023-05-19T02:28:48.040Z,5.65
2023-05-19T02:31:16.376Z,5.55
2023-05-19T02:33:45.762Z,5.65
2023-05-19T02:36:14.565Z,5.40
2023-05-19T02:38:42.828Z,5.62
2023-05-19T02:41:10.805Z,5.47
2023-05-19T02:43:38.953Z,5.37
2023-05-19T02:46:07.236Z,5.31
2023-05-19T02:48:37.694Z,5.13
2023-05-19T02:51:09.608Z,4.97
2023-05-19T02:53:37.742Z,4.96
2023-05-19T02:56:06.137Z,4.75
2023-05-19T02:58:34.080Z,4.71
2023-05-19T03:01:02.628Z,4.71
2023-05-19T03:03:30.711Z,4.87
2023-05-19T03:06:00.279Z,4.77
2023-05-19T03:08:29.894Z,5.02
2023-05-19T03:10:57.849Z,5.13
2023-05-19T03:13:25.919Z,5.36
2023-05-19T03:15:53.925Z,5.51
2023-05-19T03:18:24.656Z,5.10
2023-05-19T03:20:53.905Z,4.82
2023-05-19T03:23:22.878Z,4.91
2023-05-19T03:25:54.321Z,4.97
2023-05-19T03:28:24.417Z,4.94
2023-05-19T03:30:54.663Z,4.88
2023-05-19T03:33:24.547Z,4.58
2023-05-19T03:35:53.107Z,4.39
2023-05-19T03:38:21.014Z,4.38
2023-05-19T03:40:49.039Z,4.55
2023-05-19T03:43:18.352Z,4.61
2023-05-19T03:45:46.371Z,4.68
2023-05-19T03:48:15.924Z,4.63
2023-05-19T03:50:44.587Z,4.70
2023-05-19T03:53:13.594Z,4.93
2023-05-19T03:55:41.715Z,5.02
2023-05-19T03:58:10.667Z,5.05
2023-05-19T04:00:40.096Z,5.21
2023-05-19T04:03:08.920Z,5.31
2023-05-19T04:05:37.001Z,5.11
2023-05-19T04:08:05.081Z,5.30
2023-05-19T04:10:33.304Z,5.16
2023-05-19T04:13:01.901Z,5.41
2023-05-19T04:15:30.204Z,5.61
2023-05-19T04:18:04.851Z,5.55
2023-05-19T04:20:33.969Z,5.86
2023-05-19T04:23:02.137Z,6.00
2023-05-19T04:25:30.191Z,5.95
2023-05-19T04:27:58.921Z,6.12
2023-05-19T04:30:27.040Z,6.50
2023-05-19T04:32:55.125Z,6.47
2023-05-19T04:35:24.754Z,6.34
2023-05-19T04:37:54.384Z,6.76
2023-05-19T04:40:23.928Z,7.11
2023-05-19T04:42:54.778Z,7.02
2023-05-19T04:45:23.296Z,6.94
2023-05-19T04:47:52.746Z,6.77
2023-05-19T04:50:20.650Z,7.07
2023-05-19T04:52:50.196Z,7.01
2023-05-19T04:55:19.672Z,7.06
2023-05-19T04:57:52.545Z,7.27
2023-05-19T05:00:29.655Z,7.33
2023-05-19T05:02:58.791Z,7.41
2023-05-19T05:05:27.142Z,7.58
2023-05-19T05:08:04.631Z,7.91
2023-05-19T05:10:34.885Z,7.90
2023-05-19T05:13:16.694Z,8.03
2023-05-19T05:15:47.021Z,7.96
2023-05-19T05:18:16.192Z,8.07
2023-05-19T05:20:48.403Z,8.10
2023-05-19T05:23:18.609Z,8.26
2023-05-19T05:25:48.928Z,8.25
2023-05-19T05:28:17.196Z,8.44
2023-05-19T05:30:47.236Z,8.40
2023-05-19T05:33:17.831Z,8.47
2023-05-19T05:35:47.019Z,8.60
2023-05-19T05:38:15.193Z,8.66
2023-05-19T05:40:44.810Z,8.62
2023-05-19T05:43:13.393Z,8.68
2023-05-19T05:45:44.282Z,8.70
2023-05-19T05:48:13.108Z,8.82
2023-05-19T05:50:42.306Z,8.88
2023-05-19T05:53:11.184Z,8.94
2023-05-19T05:55:40.223Z,9.10
2023-05-19T05:58:11.225Z,9.25
2023-05-19T06:00:40.366Z,9.34
2023-05-19T06:03:10.032Z,9.61
2023-05-19T06:05:40.425Z,9.76
2023-05-19T06:08:10.371Z,10.04
2023-05-19T06:10:41.969Z,10.36
2023-05-19T06:13:11.537Z,10.75
2023-05-19T06:15:39.520Z,11.30
2023-05-19T06:18:07.844Z,11.70
2023-05-19T06:20:35.987Z,12.23
2023-05-19T06:23:04.283Z,12.85
2023-05-19T06:25:32.677Z,13.26
2023-05-19T06:28:01.005Z,14.08
2023-05-19T06:30:30.422Z,13.87
2023-05-19T06:32:58.498Z,12.95
2023-05-19T06:35:26.818Z,13.44
2023-05-19T06:37:55.804Z,14.02
2023-05-19T06:40:25.784Z,14.19
2023-05-19T06:42:53.827Z,14.51
2023-05-19T06:45:22.743Z,15.35
2023-05-19T06:47:52.187Z,15.50
2023-05-19T06:50:20.244Z,15.58
2023-05-19T06:52:49.366Z,15.16
2023-05-19T06:55:17.684Z,15.87
2023-05-19T06:57:45.777Z,15.33
2023-05-19T07:00:17.605Z,14.90
2023-05-19T07:02:46.565Z,15.21
2023-05-19T07:05:16.396Z,15.50
2023-05-19T07:07:45.048Z,15.74
2023-05-19T07:10:14.276Z,15.85
2023-05-19T07:12:45.160Z,15.18
2023-05-19T07:15:13.279Z,15.79
2023-05-19T07:17:43.803Z,15.91
2023-05-19T07:20:12.602Z,16.26
2023-05-19T07:22:41.958Z,16.68
2023-05-19T07:25:10.769Z,16.92
2023-05-19T07:27:39.797Z,16.37
2023-05-19T07:30:09.452Z,17.33
2023-05-19T07:32:37.881Z,17.76
2023-05-19T07:35:07.455Z,17.90
2023-05-19T07:37:36.063Z,17.71
2023-05-19T07:40:06.596Z,17.62
2023-05-19T07:42:34.924Z,16.97
2023-05-19T07:45:03.378Z,17.94
2023-05-19T07:47:31.609Z,18.44
2023-05-19T07:49:59.736Z,18.69
2023-05-19T07:52:27.846Z,17.80
2023-05-19T07:54:56.173Z,18.30
2023-05-19T07:57:27.895Z,18.14
2023-05-19T07:59:56.602Z,18.91
2023-05-19T08:02:24.718Z,18.25
2023-05-19T08:04:56.526Z,18.25
2023-05-19T08:07:24.714Z,18.75
2023-05-19T08:09:53.021Z,18.26
2023-05-19T08:12:20.986Z,18.83
2023-05-19T08:14:52.859Z,19.14
2023-05-19T08:17:20.732Z,18.32
2023-05-19T08:19:48.859Z,18.13
2023-05-19T08:22:16.960Z,18.48
2023-05-19T08:24:45.169Z,19.07
2023-05-19T08:27:14.754Z,18.09
2023-05-19T08:29:42.928Z,19.04
2023-05-19T08:32:13.389Z,19.22
2023-05-19T08:34:42.288Z,19.22
2023-05-19T08:37:13.261Z,19.02
2023-05-19T08:39:41.465Z,18.56
2023-05-19T08:42:10.414Z,18.49
2023-05-19T08:44:42.513Z,18.46
2023-05-19T08:47:13.995Z,19.98
2023-05-19T08:49:46.279Z,19.70
2023-05-19T08:52:32.929Z,18.97
2023-05-19T08:55:06.853Z,19.54
2023-05-19T08:57:38.354Z,19.13
2023-05-19T09:00:09.610Z,19.81
2023-05-19T09:02:50.486Z,19.54
2023-05-19T09:05:29.365Z,20.14
2023-05-19T09:07:57.746Z,20.21
2023-05-19T09:10:27.095Z,21.01
2023-05-19T09:12:56.942Z,19.25
2023-05-19T09:15:28.077Z,19.85
2023-05-19T09:18:08.948Z,19.50
2023-05-19T09:20:41.654Z,19.89
2023-05-19T09:23:14.961Z,20.10
2023-05-19T09:25:53.289Z,19.67
2023-05-19T09:28:26.331Z,20.37
2023-05-19T09:31:01.687Z,20.23
2023-05-19T09:33:31.709Z,20.76
2023-05-19T09:36:00.299Z,21.45
2023-05-19T09:38:29.469Z,21.97
2023-05-19T09:41:03.707Z,21.39
2023-05-19T09:43:35.546Z,21.09
2023-05-19T09:46:15.780Z,20.84
2023-05-19T09:48:45.113Z,20.77
2023-05-19T09:51:22.091Z,21.53
2023-05-19T09:54:10.150Z,20.58
2023-05-19T09:57:23.581Z,20.28
2023-05-19T09:59:57.509Z,20.31
2023-05-19T10:02:38.472Z,19.98
2023-05-19T10:05:20.187Z,20.94
2023-05-19T10:07:52.298Z,20.91
2023-05-19T10:10:21.177Z,20.91
2023-05-19T10:12:50.325Z,19.98
2023-05-19T10:15:23.437Z,20.26
2023-05-19T10:17:53.413Z,21.25
2023-05-19T10:20:25.678Z,21.39
2023-05-19T10:22:54.052Z,20.93
2023-05-19T10:25:22.314Z,21.09
2023-05-19T10:27:55.155Z,21.57
2023-05-19T10:30:28.526Z,21.27
2023-05-19T10:32:58.556Z,22.56
2023-05-19T10:36:14.088Z,22.24
2023-05-19T10:38:49.430Z,21.89
2023-05-19T10:41:28.653Z,21.99
2023-05-19T10:44:10.995Z,21.27
2023-05-19T10:46:47.620Z,23.13
2023-05-19T10:49:27.799Z,22.76
2023-05-19T10:52:01.103Z,21.19
2023-05-19T10:54:48.222Z,20.94
2023-05-19T10:57:17.815Z,21.79
2023-05-19T11:00:09.176Z,22.28
2023-05-19T11:02:49.744Z,23.02
2023-05-19T11:05:23.372Z,22.67
2023-05-19T11:08:03.253Z,23.71
2023-05-19T11:10:31.833Z,23.59
2023-05-19T11:13:00.218Z,22.49
2023-05-19T11:15:30.801Z,23.05
2023-05-19T11:18:02.217Z,21.96
2023-05-19T11:20:32.050Z,22.39
2023-05-19T11:23:08.723Z,23.65
2023-05-19T11:25:45.032Z,21.88
2023-05-19T11:28:14.639Z,23.21
2023-05-19T11:30:44.339Z,23.57
2023-05-19T11:33:13.421Z,23.32
2023-05-19T11:35:42.193Z,21.66
2023-05-19T11:38:13.130Z,21.29
2023-05-19T11:40:42.947Z,23.12
2023-05-19T11:43:11.933Z,23.28
2023-05-19T11:45:40.681Z,23.45
2023-05-19T11:48:17.665Z,23.88
2023-05-19T11:50:46.816Z,24.34
2023-05-19T11:53:20.330Z,23.64
2023-05-19T11:55:49.633Z,23.46
2023-05-19T11:58:18.762Z,22.63
2023-05-19T12:00:47.925Z,22.94
2023-05-19T12:03:17.382Z,23.95
2023-05-19T12:05:49.565Z,22.98
2023-05-19T12:08:19.571Z,22.20
2023-05-19T12:10:50.409Z,22.18
2023-05-19T12:13:21.488Z,22.54
2023-05-19T12:15:51.731Z,22.56
2023-05-19T12:18:20.759Z,23.08
2023-05-19T12:20:50.091Z,22.22
2023-05-19T12:23:19.997Z,22.42
2023-05-19T12:25:48.676Z,22.02
2023-05-19T12:28:17.545Z,22.62
2023-05-19T12:30:49.085Z,22.94
2023-05-19T12:33:17.654Z,22.71
2023-05-19T12:35:57.959Z,23.25
2023-05-19T12:41:48.766Z,23.89
2023-05-19T12:44:17.758Z,24.14
2023-05-19T12:46:53.504Z,23.42
2023-05-19T12:49:31.372Z,23.54
2023-05-19T12:52:20.759Z,22.93
2023-05-19T12:54:50.565Z,23.23
2023-05-19T13:00:58.276Z,24.83
2023-05-19T13:03:43.652Z,23.86
2023-05-19T13:06:20.677Z,22.96
2023-05-19T13:08:58.455Z,24.18
2023-05-19T13:11:28.079Z,22.84
2023-05-19T13:14:08.098Z,22.55
2023-05-19T13:16:38.616Z,24.10
2023-05-19T13:19:06.785Z,22.92
2023-05-19T13:21:36.767Z,23.14
2023-05-19T13:24:05.322Z,24.22
2023-05-19T13:26:35.073Z,24.22
2023-05-19T13:29:03.652Z,23.36
2023-05-19T13:31:34.143Z,22.12
2023-05-19T13:34:02.162Z,22.90
2023-05-19T13:36:30.150Z,22.27
2023-05-19T13:38:58.486Z,21.34
2023-05-19T13:41:26.871Z,20.61
2023-05-19T13:43:58.351Z,21.31
2023-05-19T13:46:33.128Z,22.49
2023-05-19T13:49:11.941Z,23.45
2023-05-19T13:51:43.596Z,22.89
2023-05-19T13:54:11.770Z,22.38
2023-05-19T13:56:40.809Z,21.31
2023-05-19T13:59:10.394Z,20.87
2023-05-19T14:01:38.814Z,20.38
2023-05-19T14:04:07.328Z,21.10
2023-05-19T14:06:35.350Z,22.51
2023-05-19T14:09:03.371Z,23.60
2023-05-19T14:11:31.399Z,23.73
2023-05-19T14:13:59.613Z,22.70
2023-05-19T14:16:29.191Z,22.21
2023-05-19T14:18:57.723Z,21.58
2023-05-19T14:21:25.788Z,21.17
2023-05-19T14:23:54.113Z,20.37
2023-05-19T14:26:22.169Z,21.58
2023-05-19T14:28:51.472Z,23.12
2023-05-19T14:31:19.726Z,23.64
2023-05-19T14:33:49.508Z,22.43
2023-05-19T14:36:33.918Z,24.19
2023-05-19T14:39:05.936Z,24.20
2023-05-19T14:41:43.168Z,24.40
2023-05-19T14:44:17.061Z,23.27
2023-05-19T14:47:07.486Z,23.45
2023-05-19T14:49:38.105Z,21.78
2023-05-19T14:52:08.690Z,21.30
2023-05-19T14:54:55.754Z,22.70
2023-05-19T14:57:27.500Z,23.88
2023-05-19T15:00:00.062Z,25.09
2023-05-19T15:02:30.511Z,23.48
2023-05-19T15:05:01.315Z,22.68
2023-05-19T15:07:29.261Z,21.94
2023-05-19T15:09:57.262Z,21.93
2023-05-19T15:12:25.237Z,22.79
2023-05-19T15:14:53.148Z,23.02
2023-05-19T15:17:21.322Z,23.77
2023-05-19T15:19:49.552Z,24.39
2023-05-19T15:22:19.090Z,24.37
2023-05-19T15:24:47.186Z,23.58
2023-05-19T15:27:15.281Z,21.63
2023-05-19T15:29:43.495Z,22.20
2023-05-19T15:32:11.438Z,22.52
2023-05-19T15:34:39.707Z,23.57
2023-05-19T15:37:07.992Z,23.65
2023-05-19T15:39:37.379Z,24.09
2023-05-19T15:42:05.646Z,24.19
2023-05-19T15:44:33.914Z,22.85
2023-05-19T15:47:02.349Z,24.67
2023-05-19T15:49:30.322Z,23.00
2023-05-19T15:51:58.416Z,23.33
2023-05-19T15:54:26.658Z,23.10
2023-05-19T15:56:56.425Z,22.38
2023-05-19T15:59:25.151Z,21.19
2023-05-19T16:01:53.453Z,20.73
2023-05-19T16:04:22.768Z,20.41
2023-05-19T16:06:50.913Z,20.04
2023-05-19T16:09:20.188Z,19.61
2023-05-19T16:11:48.472Z,19.82
2023-05-19T16:14:17.685Z,21.73
2023-05-19T16:16:45.966Z,23.50
2023-05-19T16:19:14.287Z,24.13
2023-05-19T16:21:42.706Z,23.09
2023-05-19T16:24:10.886Z,22.24
2023-05-19T16:26:39.448Z,21.19
2023-05-19T16:29:07.946Z,20.26
2023-05-19T16:31:37.598Z,19.70
2023-05-19T16:34:05.679Z,19.63
2023-05-19T16:36:35.914Z,19.36
2023-05-19T16:39:04.632Z,20.69
2023-05-19T16:41:35.388Z,21.89
2023-05-19T16:44:05.680Z,23.18
2023-05-19T16:46:34.078Z,24.08
2023-05-19T16:49:04.018Z,22.62
2023-05-19T16:51:31.992Z,21.95
2023-05-19T16:54:00.198Z,20.88
2023-05-19T16:56:28.108Z,20.60
2023-05-19T16:58:56.618Z,20.22
2023-05-19T17:01:25.893Z,19.59
2023-05-19T17:03:55.950Z,18.92
2023-05-19T17:06:25.512Z,18.89
2023-05-19T17:08:54.252Z,18.78
2023-05-19T17:11:22.674Z,18.86
2023-05-19T17:13:51.045Z,18.71
2023-05-19T17:16:19.264Z,18.71
2023-05-19T17:18:48.205Z,18.54
2023-05-19T17:21:17.793Z,18.77
2023-05-19T17:23:50.031Z,20.34
2023-05-19T17:26:20.614Z,19.86
2023-05-19T17:28:51.219Z,19.89
2023-05-19T17:31:19.073Z,20.03
2023-05-19T17:33:47.089Z,19.82
2023-05-19T17:36:16.741Z,19.27
2023-05-19T17:38:44.891Z,18.92
2023-05-19T17:41:16.156Z,18.72
2023-05-19T17:43:45.443Z,18.42
2023-05-19T17:46:13.657Z,18.19
2023-05-19T17:48:42.021Z,18.10
2023-05-19T17:51:10.050Z,18.18
2023-05-19T17:53:38.890Z,18.57
2023-05-19T17:56:09.761Z,19.12
2023-05-19T17:58:41.509Z,18.97
2023-05-19T18:01:12.621Z,18.59
2023-05-19T18:03:41.457Z,18.61
2023-05-19T18:06:09.750Z,19.00
2023-05-19T18:08:42.578Z,18.56
2023-05-19T18:11:13.511Z,18.43
2023-05-19T18:13:44.393Z,18.11
2023-05-19T18:16:13.409Z,18.43
2023-05-19T18:18:43.720Z,18.58
2023-05-19T18:21:17.692Z,18.30
2023-05-19T18:23:46.716Z,17.93
2023-05-19T18:26:14.986Z,17.90
2023-05-19T18:28:44.936Z,17.56
2023-05-19T18:31:19.375Z,17.40
2023-05-19T18:33:48.211Z,17.44
2023-05-19T18:36:17.788Z,17.16
2023-05-19T18:38:47.377Z,17.18
2023-05-19T18:41:15.827Z,16.92
2023-05-19T18:43:45.349Z,16.86
2023-05-19T18:46:14.457Z,16.86
2023-05-19T18:48:43.994Z,16.68
2023-05-19T18:51:14.375Z,16.39
2023-05-19T18:53:42.544Z,16.34
2023-05-19T18:56:12.906Z,16.16
2023-05-19T18:58:41.806Z,15.82
2023-05-19T19:01:12.575Z,15.76
2023-05-19T19:03:43.743Z,15.46
2023-05-19T19:06:15.351Z,15.39
2023-05-19T19:08:45.755Z,15.13
2023-05-19T19:11:13.974Z,14.93
2023-05-19T19:13:43.594Z,14.92
2023-05-19T19:16:13.272Z,14.70
2023-05-19T19:19:09.992Z,14.61
2023-05-19T19:21:39.266Z,14.47
2023-05-19T19:24:08.156Z,14.38
2023-05-19T19:26:51.590Z,14.17
2023-05-19T19:30:01.414Z,14.11
2023-05-19T19:33:15.007Z,13.96
2023-05-19T19:36:10.474Z,13.84
2023-05-19T19:39:03.846Z,13.64
2023-05-19T19:41:33.461Z,13.58
2023-05-19T19:44:01.746Z,13.48
2023-05-19T19:46:36.024Z,13.45
2023-05-19T19:49:04.230Z,13.27
2023-05-19T19:51:34.257Z,13.36
2023-05-19T19:54:02.324Z,13.18
2023-05-19T19:56:30.411Z,13.15
2023-05-19T19:58:59.390Z,12.95
2023-05-19T20:01:28.218Z,12.93
2023-05-19T20:03:58.157Z,12.85
2023-05-19T20:06:26.608Z,12.83
2023-05-19T20:08:57.038Z,12.69
2023-05-19T20:11:26.722Z,12.75
2023-05-19T20:13:55.606Z,12.78
2023-05-19T20:16:25.580Z,12.71
2023-05-19T20:18:57.811Z,12.56
2023-05-19T20:21:30.153Z,12.38
2023-05-19T20:24:02.750Z,12.11
2023-05-19T20:26:32.138Z,12.14
2023-05-19T20:29:02.501Z,12.14
2023-05-19T20:31:38.005Z,12.36
2023-05-19T20:34:29.490Z,12.43
2023-05-19T20:36:57.941Z,12.07
2023-05-19T20:39:56.590Z,12.30
2023-05-19T20:42:31.329Z,12.10
2023-05-19T20:45:01.907Z,12.15
2023-05-19T20:47:31.571Z,12.08
2023-05-19T20:50:03.296Z,11.94
2023-05-19T20:52:34.166Z,11.93
2023-05-19T20:55:32.960Z,11.75
2023-05-19T20:58:01.833Z,11.90
2023-05-19T21:00:32.649Z,11.66
2023-05-19T21:03:00.957Z,11.73
2023-05-19T21:05:29.189Z,11.72
2023-05-19T21:07:59.644Z,11.76
2023-05-19T21:10:29.637Z,11.61
2023-05-19T21:12:58.961Z,11.29
2023-05-19T21:15:27.288Z,11.46
2023-05-19T21:17:56.886Z,11.38
2023-05-19T21:20:26.003Z,11.27
2023-05-19T21:22:55.064Z,11.30
2023-05-19T21:25:23.928Z,11.36
2023-05-19T21:27:56.941Z,11.57
2023-05-19T21:30:25.209Z,11.40
2023-05-19T21:32:53.591Z,11.36
2023-05-19T21:35:21.942Z,11.27
2023-05-19T21:37:50.013Z,10.96
2023-05-19T21:40:18.043Z,11.43
2023-05-19T21:42:46.129Z,11.13
2023-05-19T21:45:16.683Z,11.29
2023-05-19T21:47:45.113Z,11.24
2023-05-19T21:50:17.399Z,11.02
2023-05-19T21:52:45.674Z,11.22
2023-05-19T21:55:15.762Z,10.99
2023-05-19T21:57:43.953Z,11.16
2023-05-19T22:00:14.919Z,11.01
2023-05-19T22:02:44.826Z,10.97
2023-05-19T22:05:13.253Z,11.09
2023-05-19T22:07:41.750Z,10.91
2023-05-19T22:10:13.376Z,10.78
2023-05-19T22:12:41.534Z,10.69
2023-05-19T22:15:11.191Z,10.83
2023-05-19T22:17:39.581Z,10.74
2023-05-19T22:20:12.232Z,10.68
2023-05-19T22:22:46.057Z,10.61
2023-05-19T22:25:14.211Z,10.57
2023-05-19T22:27:42.235Z,10.39
2023-05-19T22:30:10.539Z,10.25
2023-05-19T22:32:38.841Z,10.54
2023-05-19T22:35:08.366Z,10.42
2023-05-19T22:37:39.249Z,10.39
2023-05-19T22:40:08.992Z,10.45
2023-05-19T22:42:37.354Z,10.23
2023-05-19T22:45:06.792Z,10.36
2023-05-19T22:47:34.798Z,10.19
2023-05-19T22:50:02.998Z,10.27
2023-05-19T22:52:31.906Z,10.40
2023-05-19T22:55:06.013Z,10.24
2023-05-19T22:57:34.191Z,10.11
2023-05-19T23:00:02.332Z,10.09
2023-05-19T23:02:31.496Z,10.05
2023-05-19T23:04:59.635Z,9.98
2023-05-19T23:07:27.790Z,10.02
2023-05-19T23:09:56.069Z,10.00
2023-05-19T23:12:25.529Z,9.97
2023-05-19T23:14:54.028Z,9.85
2023-05-19T23:17:23.816Z,9.93
2023-05-19T23:19:51.800Z,9.78
2023-05-19T23:22:19.861Z,9.66
2023-05-19T23:24:47.902Z,9.73
2023-05-19T23:27:17.391Z,9.84
2023-05-19T23:29:50.178Z,9.80
2023-05-19T23:32:18.390Z,9.85
2023-05-19T23:34:48.405Z,9.88
2023-05-19T23:37:16.405Z,9.80
2023-05-19T23:39:44.503Z,9.87
2023-05-19T23:42:13.172Z,9.91
2023-05-19T23:44:41.320Z,10.00
2023-05-19T23:47:10.840Z,9.75
2023-05-19T23:49:39.888Z,9.77
2023-05-19T23:52:08.052Z,9.66
2023-05-19T23:54:36.053Z,9.45
2023-05-19T23:57:06.564Z,9.41
2023-05-19T23:59:34.641Z,9.51
